Accueil
METAR-TAF:

METAR-TAF

Aéroports :

Aéroport international de Malé

Malé, Maldives

latitude: 04-12N, longitude: 073-32E, altitude: 2 m

Observation

Le bulletin a été fait il y a 34 minutes, à 01:00 UTC
Vent 6 kt de ouest
Température 29°C
Humidité 84%
Pression 1008 hPa
Visibilité 10 km ou plus
Nuages épars à une hauteur de 1800 ft, Cumulus congestus.
Nuages fragmentés à une hauteur de 27000 ft

METAR: VRMM 200100Z 26006KT 9999 SCT018TCU BKN270 29/26 Q1008 NOSIG

Heure: 06:34 (01:34 UTC)

Prévision

Le bulletin a été fait il y a 2 heures et 34 minutes, à 23:00 UTC
Prévision valable du 20 à 00 UTC au 21 à 06 UTC
Vent 8 kt de ouest
Visibilité 10 km ou plus
Quelques nuages à une hauteur de 1800 ft, Cumulus congestus.
Temporairement
du 20 à 02 UTC au 20 à 08 UTC
Quelques nuages à une hauteur de 1800 ft, Cumulonimbus.

TAF: VRMM 192300Z 2000/2106 26008KT 9999 FEW018TCU TEMPO 2002/2008 FEW018CB

Observations et prévisions météorologiques de plus de 4000 aéroports (messages METAR et TAF).

Les stations disponibles sont représentées par des disques jaunes et rouges sur la carte.

Passer la souris dessus pour voir le nom de la station.

Cliquer dessus pour voir les observations et prévisions météorologiques.

Pour changer de carte: cliquez sur les boutons verts avec une croix noire pour zoomer, sur le bouton vert avec un tiret pour effectuer un zoom arrière, ou sur les flèches vertes pour les cartes adjacentes.


METAR-TAF: